createdAt,value
2018-01-24T00:00:47.840Z,9.20
2018-01-24T00:03:20.276Z,9.20
2018-01-24T00:05:51.195Z,9.20
2018-01-24T00:08:22.621Z,9.30
2018-01-24T00:10:53.553Z,9.30
2018-01-24T00:13:25.233Z,9.30
2018-01-24T00:15:56.756Z,9.40
2018-01-24T00:18:28.639Z,9.40
2018-01-24T00:20:59.841Z,9.40
2018-01-24T00:23:32.089Z,9.40
2018-01-24T00:26:05.837Z,9.30
2018-01-24T00:28:38.294Z,9.20
2018-01-24T00:31:10.980Z,9.20
2018-01-24T00:33:42.222Z,9.20
2018-01-24T00:36:13.723Z,9.20
2018-01-24T00:38:46.979Z,9.10
2018-01-24T00:41:20.937Z,9.10
2018-01-24T00:43:52.791Z,9.10
2018-01-24T00:46:24.069Z,9.10
2018-01-24T00:48:55.870Z,9.20
2018-01-24T00:51:26.867Z,9.30
2018-01-24T00:54:00.468Z,9.30
2018-01-24T00:56:33.986Z,9.40
2018-01-24T00:59:04.532Z,9.40
2018-01-24T01:01:37.004Z,9.50
2018-01-24T01:04:10.226Z,9.60
2018-01-24T01:06:43.811Z,9.60
2018-01-24T01:09:16.713Z,9.60
2018-01-24T01:11:53.883Z,9.70
2018-01-24T01:14:26.722Z,9.70
2018-01-24T01:16:57.941Z,9.70
2018-01-24T01:19:29.319Z,9.70
2018-01-24T01:22:01.330Z,9.70
2018-01-24T01:24:34.261Z,9.80
2018-01-24T01:27:06.118Z,9.80
2018-01-24T01:29:39.649Z,9.80
2018-01-24T01:32:13.432Z,9.70
2018-01-24T01:34:45.618Z,9.70
2018-01-24T01:37:16.895Z,9.70
2018-01-24T01:39:49.740Z,9.70
2018-01-24T01:42:21.104Z,9.60
2018-01-24T01:44:54.134Z,9.60
2018-01-24T01:47:26.915Z,9.50
2018-01-24T01:50:01.512Z,9.50
2018-01-24T01:52:35.839Z,9.50
2018-01-24T01:55:08.905Z,9.50
2018-01-24T01:57:40.662Z,9.40
2018-01-24T02:00:14.176Z,9.40
2018-01-24T02:02:48.196Z,9.40
2018-01-24T02:05:23.306Z,9.40
2018-01-24T02:07:57.235Z,9.30
2018-01-24T02:10:30.610Z,10.50
2018-01-24T02:13:04.041Z,9.30
2018-01-24T02:15:36.120Z,9.30
2018-01-24T02:18:07.579Z,9.30
2018-01-24T02:20:40.522Z,9.30
2018-01-24T02:23:12.908Z,9.30
2018-01-24T02:25:45.373Z,9.20
2018-01-24T02:28:16.589Z,9.20
2018-01-24T02:30:48.619Z,9.20
2018-01-24T06:39:31.676Z,11.00
2018-01-24T06:42:09.865Z,9.70
2018-01-24T06:44:47.440Z,10.80
2018-01-24T06:47:23.096Z,10.70
2018-01-24T06:50:01.180Z,10.70
2018-01-24T06:52:41.797Z,10.70
2018-01-24T06:55:20.595Z,10.70
2018-01-24T06:57:57.534Z,10.70
2018-01-24T07:00:33.095Z,10.60
2018-01-24T07:03:08.564Z,10.70
2018-01-24T07:05:42.290Z,10.70
2018-01-24T07:08:14.789Z,10.70
2018-01-24T07:10:52.938Z,10.70
2018-01-24T07:15:36.835Z,10.70
2018-01-24T07:18:09.137Z,10.70
2018-01-24T07:20:43.916Z,10.80
2018-01-24T07:23:21.375Z,10.80
2018-01-24T07:25:55.284Z,10.80
2018-01-24T07:28:32.517Z,10.80
2018-01-24T07:31:04.457Z,10.80
2018-01-24T07:33:43.288Z,10.90
2018-01-24T07:36:15.795Z,10.90
2018-01-24T07:38:50.246Z,10.90
2018-01-24T07:41:28.023Z,11.00
2018-01-24T07:44:01.360Z,11.00
2018-01-24T07:46:35.635Z,11.10
2018-01-24T07:49:12.556Z,11.10
2018-01-24T07:54:28.595Z,11.10
2018-01-24T07:57:01.583Z,11.10
2018-01-24T07:59:37.556Z,11.10
2018-01-24T08:02:09.291Z,11.20
2018-01-24T08:04:44.441Z,11.20
2018-01-24T08:07:16.250Z,11.10
2018-01-24T08:09:49.500Z,11.20
2018-01-24T08:12:23.518Z,11.10
2018-01-24T08:14:58.528Z,11.20
2018-01-24T08:17:33.688Z,11.20
2018-01-24T08:20:08.421Z,11.20
2018-01-24T08:22:42.872Z,11.20
2018-01-24T08:25:15.468Z,11.20
2018-01-24T08:27:48.673Z,11.20
2018-01-24T08:30:21.417Z,11.20
2018-01-24T08:32:54.482Z,11.20
2018-01-24T08:35:27.633Z,11.20
2018-01-24T08:38:00.107Z,11.30
2018-01-24T08:40:36.471Z,11.30
2018-01-24T08:43:24.726Z,11.40
2018-01-24T08:46:00.493Z,11.40
2018-01-24T08:48:33.078Z,11.40
2018-01-24T08:51:06.976Z,11.50
2018-01-24T08:53:43.606Z,11.50
2018-01-24T08:56:23.351Z,11.50
2018-01-24T08:58:58.375Z,11.60
2018-01-24T09:01:45.703Z,11.60
2018-01-24T09:04:21.689Z,11.60
2018-01-24T09:06:54.690Z,11.60
2018-01-24T09:09:30.622Z,11.60
2018-01-24T09:12:16.174Z,11.60
2018-01-24T09:14:49.200Z,11.60
2018-01-24T09:17:31.305Z,11.70
2018-01-24T09:20:06.804Z,11.70
2018-01-24T09:22:42.596Z,11.80
2018-01-24T09:25:18.073Z,11.70
2018-01-24T09:27:52.197Z,11.80
2018-01-24T09:30:26.108Z,11.80
2018-01-24T09:32:58.989Z,11.90
2018-01-24T09:35:33.964Z,11.90
2018-01-24T09:38:09.620Z,12.00
2018-01-24T09:40:52.233Z,12.00
2018-01-24T09:44:04.021Z,12.10
2018-01-24T09:46:38.495Z,12.10
2018-01-24T09:49:12.488Z,12.10
2018-01-24T09:51:46.367Z,12.20
2018-01-24T09:54:27.013Z,12.30
2018-01-24T09:57:06.898Z,12.20
2018-01-24T09:59:53.033Z,12.30
2018-01-24T10:02:34.045Z,12.40
2018-01-24T10:05:10.228Z,12.40
2018-01-24T10:07:49.526Z,12.40
2018-01-24T10:10:35.228Z,12.40
2018-01-24T10:13:14.048Z,12.50
2018-01-24T10:15:45.800Z,12.40
2018-01-24T10:18:27.019Z,12.40
2018-01-24T10:21:10.768Z,12.40
2018-01-24T10:23:45.404Z,12.40
2018-01-24T10:26:30.272Z,12.40
2018-01-24T10:29:02.737Z,12.40
2018-01-24T10:31:37.111Z,12.40
2018-01-24T10:34:09.004Z,12.40
2018-01-24T10:36:43.121Z,12.40
2018-01-24T10:39:21.212Z,12.40
2018-01-24T10:41:56.105Z,12.40
2018-01-24T10:44:33.025Z,12.40
2018-01-24T10:47:06.029Z,12.50
2018-01-24T10:49:39.275Z,12.50
2018-01-24T10:52:12.590Z,12.50
2018-01-24T10:54:51.672Z,12.50
2018-01-24T10:57:28.864Z,12.60
2018-01-24T11:00:06.906Z,11.60
2018-01-24T11:02:46.320Z,12.50
2018-01-24T11:05:19.726Z,12.50
2018-01-24T11:07:52.499Z,12.60
2018-01-24T11:10:28.805Z,12.50
2018-01-24T11:13:03.846Z,12.50
2018-01-24T11:15:41.641Z,12.50
2018-01-24T11:18:15.740Z,12.50
2018-01-24T11:20:51.320Z,12.50
2018-01-24T11:23:27.113Z,12.50
2018-01-24T11:26:02.204Z,12.50
2018-01-24T11:28:37.573Z,12.50
2018-01-24T11:31:16.103Z,12.50
2018-01-24T11:33:50.930Z,12.50
2018-01-24T11:36:23.572Z,12.60
2018-01-24T11:38:56.923Z,12.60
2018-01-24T11:41:38.411Z,12.60
2018-01-24T11:44:13.491Z,12.70
2018-01-24T11:46:47.980Z,12.60
2018-01-24T11:49:27.482Z,12.80
2018-01-24T11:55:01.205Z,12.80
2018-01-24T11:57:37.439Z,12.80
2018-01-24T12:00:12.504Z,12.90
2018-01-24T12:02:47.584Z,13.00
2018-01-24T12:05:25.546Z,12.90
2018-01-24T12:07:58.081Z,12.90
2018-01-24T12:10:31.068Z,12.90
2018-01-24T12:13:10.264Z,12.90
2018-01-24T12:15:45.778Z,12.90
2018-01-24T12:18:19.477Z,13.00
2018-01-24T12:20:59.953Z,13.00
2018-01-24T12:23:38.838Z,13.00
2018-01-24T12:26:12.392Z,12.90
2018-01-24T12:28:48.682Z,12.90
2018-01-24T12:31:25.456Z,12.90
2018-01-24T12:34:00.456Z,13.00
2018-01-24T12:36:35.214Z,13.00
2018-01-24T12:39:18.396Z,13.10
2018-01-24T12:41:53.908Z,13.10
2018-01-24T12:44:28.896Z,13.20
2018-01-24T12:47:10.725Z,13.30
2018-01-24T12:49:48.670Z,13.30
2018-01-24T12:52:28.232Z,13.20
2018-01-24T12:55:11.974Z,13.30
2018-01-24T12:57:49.464Z,13.30
2018-01-24T13:00:23.688Z,13.30
2018-01-24T13:03:00.703Z,13.30
2018-01-24T13:05:47.372Z,13.30
2018-01-24T13:08:35.105Z,13.40
2018-01-24T13:11:12.535Z,13.10
2018-01-24T13:13:49.140Z,13.10
2018-01-24T13:16:21.397Z,13.20
2018-01-24T13:18:54.514Z,13.20
2018-01-24T13:21:32.644Z,13.20
2018-01-24T13:24:09.298Z,13.20
2018-01-24T13:26:42.645Z,13.20
2018-01-24T13:29:16.103Z,14.20
2018-01-24T13:31:53.726Z,13.20
2018-01-24T13:34:26.994Z,13.10
2018-01-24T13:37:00.467Z,13.10
2018-01-24T13:39:36.196Z,13.00
2018-01-24T13:42:13.303Z,13.00
2018-01-24T13:44:48.701Z,12.90
2018-01-24T13:47:24.792Z,12.90
2018-01-24T13:49:58.193Z,12.90
2018-01-24T13:52:31.950Z,12.90
2018-01-24T13:55:09.740Z,12.90
2018-01-24T13:57:44.122Z,12.90
2018-01-24T14:00:22.995Z,12.80
2018-01-24T14:03:01.506Z,12.80
2018-01-24T14:05:38.791Z,12.80
2018-01-24T14:08:14.863Z,12.80
2018-01-24T14:10:51.255Z,12.80
2018-01-24T14:13:24.859Z,12.80
2018-01-24T14:15:58.112Z,12.90
2018-01-24T14:18:32.394Z,12.90
2018-01-24T14:21:16.198Z,12.90
2018-01-24T14:23:53.716Z,12.80
2018-01-24T14:26:32.450Z,12.80
2018-01-24T14:29:07.325Z,12.80
2018-01-24T14:31:41.551Z,12.80
2018-01-24T14:34:15.501Z,12.80
2018-01-24T14:39:37.775Z,12.70
2018-01-24T14:42:12.670Z,12.70
2018-01-24T14:44:49.232Z,12.70
2018-01-24T14:47:20.840Z,12.60
2018-01-24T14:50:03.526Z,12.60
2018-01-24T14:52:35.165Z,12.60
2018-01-24T14:55:09.723Z,12.60
2018-01-24T14:57:42.754Z,12.50
2018-01-24T15:00:17.724Z,12.50
2018-01-24T15:02:53.354Z,12.50
2018-01-24T15:05:25.839Z,12.50
2018-01-24T15:07:59.417Z,12.50
2018-01-24T15:10:31.858Z,12.40
2018-01-24T15:13:05.817Z,12.50
2018-01-24T15:15:39.312Z,12.40
2018-01-24T15:18:15.867Z,12.40
2018-01-24T15:20:51.347Z,12.40
2018-01-24T15:23:36.221Z,12.30
2018-01-24T15:26:08.881Z,12.30
2018-01-24T15:28:42.901Z,12.30
2018-01-24T15:31:17.420Z,12.20
2018-01-24T15:33:52.246Z,12.20
2018-01-24T15:36:24.483Z,12.20
2018-01-24T15:38:59.834Z,12.10
2018-01-24T15:41:37.411Z,12.10
2018-01-24T15:44:15.507Z,12.10
2018-01-24T15:46:51.077Z,12.10
2018-01-24T15:49:27.373Z,12.10
2018-01-24T15:52:03.499Z,12.10
2018-01-24T15:54:42.273Z,12.10
2018-01-24T15:57:17.040Z,12.00
2018-01-24T15:59:58.149Z,12.00
2018-01-24T16:02:39.132Z,12.00
2018-01-24T16:05:23.078Z,12.00
2018-01-24T16:07:59.116Z,12.00
2018-01-24T16:10:38.282Z,12.60
2018-01-24T16:13:16.671Z,11.90
2018-01-24T16:15:50.111Z,13.40
2018-01-24T16:18:23.808Z,12.00
2018-01-24T16:20:57.887Z,12.00
2018-01-24T16:23:34.560Z,12.00
2018-01-24T16:26:08.112Z,12.00
2018-01-24T16:28:42.916Z,12.00
2018-01-24T16:31:18.229Z,12.00
2018-01-24T16:33:53.414Z,12.00
2018-01-24T16:36:28.157Z,12.00
2018-01-24T16:39:04.083Z,12.10
2018-01-24T16:41:38.800Z,12.10
2018-01-24T16:44:11.936Z,13.50
2018-01-24T16:46:46.812Z,12.20
2018-01-24T16:49:20.122Z,12.20
2018-01-24T16:51:54.473Z,12.20
2018-01-24T16:54:32.499Z,12.20
2018-01-24T16:57:05.810Z,12.10
2018-01-24T16:59:38.991Z,12.10
2018-01-24T17:02:14.819Z,12.10
2018-01-24T17:04:48.113Z,12.10
2018-01-24T17:07:22.372Z,12.00
2018-01-24T17:09:58.488Z,12.00
2018-01-24T17:12:31.284Z,11.90
2018-01-24T17:15:04.824Z,11.90
2018-01-24T17:17:37.055Z,11.90
2018-01-24T17:20:10.934Z,11.90
2018-01-24T17:22:43.467Z,11.90
2018-01-24T17:25:17.857Z,12.00
2018-01-24T17:27:51.634Z,12.10
2018-01-24T17:30:24.608Z,12.10
2018-01-24T17:33:06.232Z,12.10
2018-01-24T17:35:42.933Z,12.10
2018-01-24T17:38:16.330Z,12.10
2018-01-24T17:40:48.218Z,12.10
2018-01-24T17:43:20.397Z,12.10
2018-01-24T17:45:53.252Z,12.00
2018-01-24T17:48:25.229Z,12.10
2018-01-24T17:50:58.310Z,12.00
2018-01-24T17:53:30.285Z,12.00
2018-01-24T17:56:02.771Z,12.00
2018-01-24T17:58:36.074Z,12.00
2018-01-24T18:01:08.105Z,11.90
2018-01-24T18:03:44.247Z,11.90
2018-01-24T18:06:23.555Z,11.90
2018-01-24T18:08:56.364Z,11.90
2018-01-24T18:11:32.734Z,11.90
2018-01-24T18:14:09.647Z,11.80
2018-01-24T18:16:44.063Z,11.80
2018-01-24T18:19:17.644Z,11.90
2018-01-24T18:21:54.818Z,11.80
2018-01-24T18:27:09.045Z,11.90
2018-01-24T18:29:47.332Z,11.90
2018-01-24T18:32:19.648Z,11.90
2018-01-24T18:34:53.795Z,11.90
2018-01-24T18:37:28.022Z,11.90
2018-01-24T18:40:01.073Z,11.90
2018-01-24T18:42:35.699Z,11.80
2018-01-24T18:45:14.101Z,11.80
2018-01-24T18:47:46.983Z,11.80
2018-01-24T18:50:22.904Z,11.80
2018-01-24T18:52:55.382Z,11.80
2018-01-24T18:55:28.038Z,11.70
2018-01-24T18:58:00.719Z,11.70
2018-01-24T19:00:32.223Z,11.80
2018-01-24T19:03:06.812Z,11.80
2018-01-24T19:05:52.453Z,11.70
2018-01-24T19:08:29.918Z,11.70
2018-01-24T19:11:04.003Z,11.60
2018-01-24T19:13:38.900Z,11.60
2018-01-24T19:16:14.612Z,11.60
2018-01-24T19:18:51.095Z,11.50
2018-01-24T19:21:26.168Z,11.40
2018-01-24T19:24:01.638Z,11.40
2018-01-24T19:26:36.274Z,11.30
2018-01-24T19:29:16.165Z,11.30
2018-01-24T19:31:51.766Z,11.30
2018-01-24T19:34:27.419Z,11.20
2018-01-24T19:37:04.229Z,11.20
2018-01-24T19:39:40.617Z,11.20
2018-01-24T19:42:18.806Z,11.20
2018-01-24T19:44:57.745Z,11.20
2018-01-24T19:47:30.998Z,11.20
2018-01-24T19:50:05.936Z,11.20
2018-01-24T19:52:41.226Z,11.10
2018-01-24T19:55:16.379Z,11.10
2018-01-24T19:57:53.805Z,11.10
2018-01-24T20:03:14.692Z,11.10
2018-01-24T20:05:48.910Z,11.00
2018-01-24T20:08:21.165Z,11.10
2018-01-24T20:10:59.783Z,11.00
2018-01-24T20:13:33.376Z,11.00
2018-01-24T20:16:06.007Z,11.00
2018-01-24T20:18:39.145Z,11.00
2018-01-24T20:21:11.403Z,10.60
2018-01-24T20:23:43.939Z,11.00
2018-01-24T20:26:17.733Z,10.90
2018-01-24T20:28:50.673Z,11.00
2018-01-24T20:31:22.692Z,10.90
2018-01-24T20:33:54.634Z,10.90
2018-01-24T20:36:27.106Z,10.90
2018-01-24T20:38:59.140Z,10.90
2018-01-24T20:41:31.490Z,10.80
2018-01-24T20:44:05.098Z,10.80
2018-01-24T20:46:37.524Z,10.80
2018-01-24T20:49:11.000Z,10.80
2018-01-24T20:51:44.319Z,10.80
2018-01-24T20:54:17.629Z,10.80
2018-01-24T20:56:50.667Z,10.80
2018-01-24T20:59:22.796Z,10.80
2018-01-24T21:01:59.714Z,10.80
2018-01-24T21:04:34.361Z,10.80
2018-01-24T21:07:08.464Z,10.80
2018-01-24T21:09:40.721Z,10.80
2018-01-24T21:12:14.770Z,10.80
2018-01-24T21:14:51.895Z,10.80
2018-01-24T21:17:24.190Z,10.80
2018-01-24T21:19:57.537Z,10.80
2018-01-24T21:22:33.089Z,10.80
2018-01-24T21:25:08.537Z,10.80
2018-01-24T21:27:43.024Z,10.80
2018-01-24T21:30:39.129Z,10.70
2018-01-24T21:33:21.963Z,10.70
2018-01-24T21:36:02.787Z,10.70
2018-01-24T21:38:36.171Z,10.70
2018-01-24T21:41:09.643Z,10.80
2018-01-24T21:43:45.522Z,10.70
2018-01-24T21:46:19.856Z,10.70
2018-01-24T21:48:51.572Z,10.70
2018-01-24T21:51:23.080Z,10.70
2018-01-24T21:53:57.090Z,10.70
2018-01-24T21:56:28.426Z,10.70
2018-01-24T21:59:02.579Z,10.70
2018-01-24T22:01:33.931Z,10.80
2018-01-24T22:04:05.972Z,10.70
2018-01-24T22:06:37.854Z,10.70
2018-01-24T22:09:10.742Z,10.70
2018-01-24T22:11:44.489Z,10.70
2018-01-24T22:14:18.257Z,10.70
2018-01-24T22:16:50.287Z,10.70
2018-01-24T22:19:25.195Z,10.70
2018-01-24T22:21:59.935Z,10.70
2018-01-24T22:24:32.014Z,10.80
2018-01-24T22:27:03.645Z,10.90
2018-01-24T22:29:36.380Z,10.80
2018-01-24T22:32:08.750Z,10.80
2018-01-24T22:34:43.546Z,11.70
2018-01-24T22:37:15.492Z,10.90
2018-01-24T22:39:49.068Z,10.90
2018-01-24T22:42:21.249Z,10.90
2018-01-24T22:44:55.630Z,10.90
2018-01-24T22:47:28.576Z,12.10
2018-01-24T22:50:00.351Z,10.90
2018-01-24T22:52:33.455Z,10.90
2018-01-24T22:55:05.182Z,11.00
2018-01-24T22:57:38.027Z,11.00
2018-01-24T23:00:23.639Z,11.00
2018-01-24T23:03:00.282Z,11.00
2018-01-24T23:05:36.421Z,10.90
2018-01-24T23:08:09.479Z,10.90
2018-01-24T23:10:41.354Z,10.90
2018-01-24T23:13:14.277Z,10.90
2018-01-24T23:15:47.367Z,10.90
2018-01-24T23:18:21.602Z,10.90
2018-01-24T23:20:55.418Z,10.90
2018-01-24T23:23:29.221Z,10.80
2018-01-24T23:26:06.335Z,10.80
2018-01-24T23:28:38.405Z,10.80
2018-01-24T23:31:11.768Z,10.80
2018-01-24T23:33:45.427Z,10.80
2018-01-24T23:36:17.830Z,10.80
2018-01-24T23:38:50.885Z,10.70
2018-01-24T23:41:22.770Z,10.70
2018-01-24T23:43:57.372Z,10.70
2018-01-24T23:46:31.011Z,10.70
2018-01-24T23:49:03.148Z,10.80
2018-01-24T23:51:37.047Z,10.70
2018-01-24T23:54:10.811Z,10.80
2018-01-24T23:56:43.992Z,10.70
2018-01-24T23:59:17.466Z,10.70
